aviador You're here:

RPLB Decoded Metar

OLONGAPO/SUBIC in PHILIPPINES
Report Time2017-10-21 15:00:00
UTC Time2017-10-21 15:33:25
Flight Rules vfr VFR
WindVRB at 03 kt
Visibility9999 m
Phenomena:N/A
Clouds:Few 020 Hf
Expected CloudBase > 800 ft AGL from Temp-Dew spread
CeilingNone
Temp26°C (ISA +11)
Dew Point24°C (89% RH)
QNH1007 hPa
Density Alt1,932 ft
Elevation56 ft
Report Wrong Elevation
Raw Report
METAR RPLB 211500Z VRB03KT 9999 FEW020 26/24 Q1007 NOSIG RMK A2974=

Extra information for RPLB:More info

Metar Taf Metar & Taf Last 4 Metars F.Rules Stats Wind Profile Meteogram Temp Stats Airport Information Weather charts Add Link Nearby VenuesMetar ALERT Operation Metar Decoded Social comments